Сенной

Карта отелей и гостиниц, располагающихся рядом с аэропортом Сенной :

Сенной Волгоградская область 50° 16' 4.6488" N, 43° 31' 50.2896" E
Код аэродрома ИКАО
ZF66
Код аэродрома RU
ЗФ66
Координаты
N50.26796° E043.53064°
Превышение над уровнем моря
147
Основная полоса
15/33
Курс магнитный
146,5/326,5
Длина основной ВПП
764
Ширина основной ВПП
30
Покрытие основной ВПП
Нетвёрдое
Освещение ВПП
Нет
Тип: 
Аэродром
Класс аэродрома: 
Принадлежность: 
ГА
Статус: 
Недействующий
Сайт: 
E-mail аэродрома: 
Страна: 
Россия
Регион: 
Волгоградская область
Город: 
Дополнительная информация: 
Бывшая площадка АХР.

Найти трансфер

С помощью этой формы Вы можете найти трансфер из аэропорта Сенной в город, аэропорт или вокзал:

Карта места

Javascript is required to view this map.

Погода в аэропортах:

Авиационная погода в Вадсё

Регион: 
Погода METAR: 
ENVD 051050Z 25006KT 9999 VCSH BKN050 14/09 Q1010
Время наблюдения
2021-08-05T10:50:00Z
Температура C
14.0
Точка росы
9.0
Направление ветра
250
Скорость ветра (узлы)
6
Метео видимость
6.21
Явления погоды
VCSH
Условия полета
VFR

Авиационная погода в Игнатьево

Регион: 
Погода METAR: 
UHBB 051100Z 28002MPS 220V300 9999 -TSRA BKN033CB 20/20 Q0995 R36/290350 NOSIG RMK QFE729/0972
Время наблюдения
2021-08-05T11:00:00Z
Температура C
20.0
Точка росы
20.0
Направление ветра
280
Скорость ветра (узлы)
4
Метео видимость
6.21
Явления погоды
-TSRA
Условия полета
VFR
Аэропорт подробнее: 

Авиационная погода в Москва - Внуково

Погода METAR: 
UUWW 051100Z 00000MPS 9999 -RA BKN026 19/15 Q1016 R06/290050 NOSIG
Время наблюдения
2021-08-05T11:00:00Z
Температура C
19.0
Точка росы
15.0
Направление ветра
0
Скорость ветра (узлы)
0
Метео видимость
6.21
Явления погоды
-RA
Условия полета
MVFR
Аэропорт подробнее: 

Авиационная погода в Сургуте

Регион: 
Погода METAR: 
USRR 050900Z 36002MPS 320V040 2100 R07/1900N BR BKN022 19/18 Q1012 R07/CLRD60 TEMPO 1000 BR RMK OBST OBSC QFE754
Время наблюдения
2021-08-05T09:00:00Z
Температура C
19.0
Точка росы
18.0
Направление ветра
360
Скорость ветра (узлы)
4
Метео видимость
1.3
Явления погоды
BR
Условия полета
IFR
Аэропорт подробнее: